createdAt,value
2022-08-29T00:00:16.580Z,9.10
2022-08-29T00:05:42.834Z,8.10
2022-08-29T00:10:56.297Z,5.30
2022-08-29T00:16:02.334Z,5.30
2022-08-29T00:21:08.810Z,5.40
2022-08-29T00:26:15.044Z,5.90
2022-08-29T00:31:21.029Z,4.50
2022-08-29T00:36:27.101Z,6.80
2022-08-29T00:41:36.500Z,8.40
2022-08-29T00:46:54.247Z,6.50
2022-08-29T00:52:05.439Z,7.00
2022-08-29T00:57:11.917Z,6.20
2022-08-29T01:02:19.175Z,5.70
2022-08-29T01:07:25.280Z,7.00
2022-08-29T01:12:31.375Z,7.40
2022-08-29T01:17:43.933Z,10.10
2022-08-29T01:22:59.051Z,8.60
2022-08-29T01:28:12.031Z,8.90
2022-08-29T01:33:18.039Z,7.30
2022-08-29T01:38:29.967Z,8.00
2022-08-29T01:43:42.412Z,8.00
2022-08-29T01:48:48.989Z,9.20
2022-08-29T01:53:55.265Z,9.20
2022-08-29T01:59:03.726Z,9.10
2022-08-29T02:04:10.030Z,8.50
2022-08-29T02:09:16.070Z,8.60
2022-08-29T02:14:23.585Z,9.30
2022-08-29T02:19:29.543Z,9.60
2022-08-29T02:24:35.924Z,8.00
2022-08-29T02:29:42.117Z,8.80
2022-08-29T02:34:48.546Z,11.30
2022-08-29T02:39:54.831Z,8.40
2022-08-29T02:45:01.258Z,9.20
2022-08-29T02:50:09.664Z,7.90
2022-08-29T02:55:18.329Z,9.40
2022-08-29T03:00:27.386Z,8.30
2022-08-29T03:06:53.654Z,16.90
2022-08-29T03:11:59.571Z,21.80
2022-08-29T03:17:05.809Z,21.10
2022-08-29T03:22:11.849Z,21.50
2022-08-29T03:27:19.088Z,23.30
2022-08-29T03:32:25.840Z,22.70
2022-08-29T03:37:32.727Z,22.40
2022-08-29T03:42:38.893Z,23.20
2022-08-29T03:47:44.899Z,24.40
2022-08-29T03:52:51.531Z,23.30
2022-08-29T03:57:57.665Z,24.10
2022-08-29T04:03:03.912Z,21.80
2022-08-29T04:08:09.985Z,20.90
2022-08-29T04:13:15.883Z,21.30
2022-08-29T04:18:22.555Z,22.00
2022-08-29T04:23:28.423Z,18.70
2022-08-29T04:28:34.402Z,17.50
2022-08-29T04:33:41.165Z,15.60
2022-08-29T04:38:47.066Z,13.80
2022-08-29T04:43:53.547Z,15.80
2022-08-29T04:49:03.969Z,16.80
2022-08-29T04:54:10.474Z,13.80
2022-08-29T04:59:17.105Z,13.70
2022-08-29T05:04:25.278Z,14.20
2022-08-29T05:09:31.213Z,13.10
2022-08-29T05:14:51.496Z,11.80
2022-08-29T05:20:39.971Z,11.80
2022-08-29T05:32:18.519Z,13.50
2022-08-29T05:38:19.429Z,4.40
2022-08-29T05:43:54.468Z,3.60
2022-08-29T06:01:08.025Z,2.30
2022-08-29T06:06:14.122Z,3.90
2022-08-29T06:11:22.613Z,3.20
2022-08-29T06:16:29.857Z,5.90
2022-08-29T06:21:35.861Z,3.50
2022-08-29T06:26:42.869Z,3.90
2022-08-29T06:32:07.325Z,3.50
2022-08-29T06:37:13.481Z,4.00
2022-08-29T06:42:23.913Z,3.60
2022-08-29T06:47:34.555Z,2.70
2022-08-29T06:52:40.553Z,3.30
2022-08-29T06:57:47.034Z,4.70
2022-08-29T07:02:53.780Z,3.00
2022-08-29T07:07:59.745Z,4.50
2022-08-29T07:13:05.597Z,4.40
2022-08-29T07:18:11.935Z,6.30
2022-08-29T07:23:18.263Z,6.70
2022-08-29T07:28:24.190Z,6.50
2022-08-29T07:33:30.166Z,6.30
2022-08-29T07:38:36.541Z,6.30
2022-08-29T07:43:43.449Z,6.10
2022-08-29T07:48:49.530Z,8.80
2022-08-29T07:53:56.812Z,9.70
2022-08-29T07:59:02.666Z,9.10
2022-08-29T08:04:11.045Z,10.10
2022-08-29T08:09:17.009Z,9.70
2022-08-29T08:14:22.888Z,7.80
2022-08-29T08:19:40.865Z,12.10
2022-08-29T08:24:48.557Z,9.50
2022-08-29T08:29:55.557Z,9.80
2022-08-29T08:35:04.529Z,8.10
2022-08-29T08:40:19.816Z,6.10
2022-08-29T08:45:33.476Z,5.70
2022-08-29T08:50:54.513Z,7.50
2022-08-29T08:56:04.873Z,8.60
2022-08-29T09:01:18.758Z,8.50
2022-08-29T09:06:37.887Z,9.00
2022-08-29T09:11:56.362Z,10.30
2022-08-29T09:17:04.108Z,8.70
2022-08-29T09:22:16.595Z,8.10
2022-08-29T09:27:24.278Z,9.90
2022-08-29T09:32:30.198Z,7.60
2022-08-29T09:37:36.915Z,9.00
2022-08-29T09:42:49.731Z,8.70
2022-08-29T09:48:14.393Z,6.50
2022-08-29T09:53:25.478Z,8.20
2022-08-29T09:58:39.929Z,6.50
2022-08-29T10:03:58.577Z,5.10
2022-08-29T10:09:09.175Z,7.20
2022-08-29T10:14:23.511Z,10.90
2022-08-29T10:19:33.129Z,6.80
2022-08-29T10:24:57.826Z,8.20
2022-08-29T10:30:12.508Z,9.80
2022-08-29T10:35:24.469Z,7.30
2022-08-29T10:40:43.226Z,5.60
2022-08-29T10:46:04.070Z,6.60
2022-08-29T10:51:21.558Z,5.90
2022-08-29T10:56:33.007Z,7.20
2022-08-29T11:01:43.988Z,4.70
2022-08-29T11:06:58.195Z,6.60
2022-08-29T11:12:12.510Z,5.50
2022-08-29T11:17:26.338Z,5.20
2022-08-29T11:22:37.693Z,6.50
2022-08-29T11:27:53.604Z,5.00
2022-08-29T11:33:14.888Z,4.90
2022-08-29T11:38:49.780Z,4.50
2022-08-29T11:44:05.541Z,3.70
2022-08-29T11:49:41.977Z,3.10
2022-08-29T11:55:09.861Z,3.20
2022-08-29T12:00:42.669Z,4.30
2022-08-29T12:06:01.716Z,4.00
2022-08-29T12:11:07.724Z,4.80
2022-08-29T12:16:15.687Z,6.60
2022-08-29T12:21:47.177Z,6.20
2022-08-29T12:26:54.835Z,4.20
2022-08-29T12:32:43.226Z,4.00
2022-08-29T12:38:01.469Z,5.70
2022-08-29T12:43:29.446Z,8.10
2022-08-29T12:48:41.158Z,4.10
2022-08-29T12:53:50.725Z,3.70
2022-08-29T12:58:58.993Z,4.00
2022-08-29T13:04:13.510Z,5.40
2022-08-29T13:09:28.254Z,4.90
2022-08-29T13:14:36.118Z,4.00
2022-08-29T13:20:04.647Z,5.40
2022-08-29T13:25:10.791Z,5.30
2022-08-29T13:30:24.755Z,3.80
2022-08-29T13:35:33.053Z,4.70
2022-08-29T13:40:45.638Z,5.60
2022-08-29T13:46:00.823Z,3.60
2022-08-29T13:51:07.272Z,4.20
2022-08-29T13:56:23.235Z,3.70
2022-08-29T14:01:29.842Z,3.30
2022-08-29T14:06:36.726Z,4.90
2022-08-29T14:11:45.242Z,2.90
2022-08-29T14:16:53.688Z,4.20
2022-08-29T14:22:00.653Z,3.40
2022-08-29T14:27:08.521Z,4.00
2022-08-29T14:32:14.444Z,4.30
2022-08-29T14:37:20.924Z,4.80
2022-08-29T14:42:27.168Z,2.20
2022-08-29T14:47:33.563Z,5.20
2022-08-29T14:52:39.739Z,4.60
2022-08-29T14:57:45.653Z,2.80
2022-08-29T15:02:52.411Z,3.90
2022-08-29T15:08:00.720Z,3.00
2022-08-29T15:13:10.486Z,6.20
2022-08-29T15:18:42.788Z,4.40
2022-08-29T15:23:44.686Z,6.20
2022-08-29T15:28:50.626Z,7.20
2022-08-29T15:33:56.534Z,3.00
2022-08-29T15:39:05.820Z,4.20
2022-08-29T15:44:12.063Z,3.90
2022-08-29T15:49:18.743Z,3.70
2022-08-29T15:54:26.001Z,5.00
2022-08-29T15:59:56.720Z,3.70
2022-08-29T16:04:59.984Z,6.60
2022-08-29T16:10:11.149Z,4.70
2022-08-29T16:15:18.297Z,5.40
2022-08-29T16:20:24.099Z,4.70
2022-08-29T16:25:31.258Z,4.90
2022-08-29T16:30:44.251Z,4.20
2022-08-29T16:35:52.297Z,5.60
2022-08-29T16:41:05.054Z,4.40
2022-08-29T16:46:12.291Z,4.80
2022-08-29T16:51:19.001Z,4.40
2022-08-29T16:56:25.150Z,4.70
2022-08-29T17:01:33.254Z,4.00
2022-08-29T17:06:39.712Z,5.40
2022-08-29T17:11:45.991Z,3.30
2022-08-29T17:16:54.037Z,7.70
2022-08-29T17:22:00.014Z,5.60
2022-08-29T17:27:06.001Z,3.50
2022-08-29T17:32:24.126Z,6.00
2022-08-29T17:37:36.430Z,5.30
2022-08-29T17:43:16.504Z,4.00
2022-08-29T17:48:33.896Z,4.80
2022-08-29T17:53:45.828Z,3.90
2022-08-29T17:59:05.930Z,5.30
2022-08-29T18:04:20.668Z,3.30
2022-08-29T18:09:26.730Z,3.60
2022-08-29T18:14:33.654Z,4.30
2022-08-29T18:19:40.003Z,3.20
2022-08-29T18:24:48.934Z,9.10
2022-08-29T18:29:55.409Z,8.20
2022-08-29T18:50:36.462Z,9.50
2022-08-29T18:55:51.222Z,6.00
2022-08-29T19:00:59.560Z,5.60
2022-08-29T19:06:05.866Z,3.80
2022-08-29T19:11:11.881Z,7.70
2022-08-29T19:16:19.488Z,5.50
2022-08-29T19:21:26.188Z,6.90
2022-08-29T19:26:38.010Z,4.30
2022-08-29T19:31:46.363Z,8.50
2022-08-29T19:36:52.168Z,5.60
2022-08-29T19:41:58.245Z,9.70
2022-08-29T19:47:04.526Z,6.00
2022-08-29T19:52:10.918Z,5.20
2022-08-29T19:57:16.997Z,4.30
2022-08-29T20:02:22.960Z,5.00
2022-08-29T20:07:29.260Z,6.10
2022-08-29T20:12:37.942Z,5.10
2022-08-29T20:17:44.864Z,6.20
2022-08-29T20:22:51.377Z,5.30
2022-08-29T20:27:57.500Z,4.20
2022-08-29T20:33:04.674Z,6.70
2022-08-29T20:38:12.604Z,5.80
2022-08-29T20:43:19.662Z,5.80
2022-08-29T20:48:31.091Z,10.10
2022-08-29T20:53:38.562Z,5.30
2022-08-29T20:58:45.459Z,5.40
2022-08-29T21:04:10.385Z,4.80
2022-08-29T21:09:16.347Z,5.90
2022-08-29T21:14:22.847Z,7.70
2022-08-29T21:19:29.988Z,6.30
2022-08-29T21:24:36.131Z,7.00
2022-08-29T21:29:43.585Z,5.30
2022-08-29T21:34:49.546Z,6.30
2022-08-29T21:39:55.404Z,8.90
2022-08-29T21:45:01.725Z,8.30
2022-08-29T21:50:08.933Z,6.40
2022-08-29T21:55:15.721Z,8.20
2022-08-29T22:00:25.049Z,9.40
2022-08-29T22:05:31.639Z,9.60
2022-08-29T22:10:38.876Z,6.90
2022-08-29T22:16:03.995Z,9.50
2022-08-29T22:21:15.187Z,6.00
2022-08-29T22:26:21.890Z,9.50
2022-08-29T22:31:28.115Z,5.80
2022-08-29T22:36:34.876Z,5.90
2022-08-29T22:41:44.199Z,5.90
2022-08-29T22:46:54.014Z,6.10
2022-08-29T22:52:00.394Z,5.30
2022-08-29T22:57:09.089Z,7.50
2022-08-29T23:02:16.303Z,7.30
2022-08-29T23:07:22.283Z,9.80
2022-08-29T23:12:28.658Z,11.30
2022-08-29T23:17:34.552Z,10.30
2022-08-29T23:22:42.877Z,6.60
2022-08-29T23:27:48.949Z,8.30
2022-08-29T23:32:54.866Z,7.30
2022-08-29T23:38:00.722Z,7.50
2022-08-29T23:43:07.312Z,8.60
2022-08-29T23:48:13.283Z,7.30
2022-08-29T23:53:19.977Z,6.70
2022-08-29T23:58:25.779Z,6.60
